createdAt,value
2022-10-31T00:01:21.694Z,18.27
2022-10-31T00:03:49.080Z,16.27
2022-10-31T00:06:19.195Z,19.50
2022-10-31T00:08:49.857Z,16.98
2022-10-31T00:11:17.037Z,16.17
2022-10-31T00:13:44.404Z,14.68
2022-10-31T00:16:19.203Z,14.23
2022-10-31T00:18:49.465Z,14.27
2022-10-31T00:21:16.886Z,11.00
2022-10-31T00:23:44.530Z,15.95
2022-10-31T00:26:12.094Z,12.88
2022-10-31T00:28:45.085Z,15.23
2022-10-31T00:31:13.336Z,14.05
2022-10-31T00:33:41.477Z,12.10
2022-10-31T00:36:09.822Z,11.25
2022-10-31T00:38:39.286Z,15.43
2022-10-31T00:41:06.653Z,13.27
2022-10-31T00:43:34.029Z,13.15
2022-10-31T00:46:01.353Z,13.52
2022-10-31T00:48:28.701Z,14.35
2022-10-31T00:50:58.617Z,13.90
2022-10-31T00:53:27.123Z,12.02
2022-10-31T00:55:54.390Z,13.75
2022-10-31T00:58:27.278Z,15.05
2022-10-31T01:00:57.584Z,14.32
2022-10-31T01:03:29.114Z,15.30
2022-10-31T01:06:03.754Z,16.45
2022-10-31T01:08:39.755Z,14.32
2022-10-31T01:11:09.980Z,16.40
2022-10-31T01:13:37.298Z,15.55
2022-10-31T01:16:05.933Z,17.50
2022-10-31T01:18:33.394Z,16.45
2022-10-31T01:21:04.176Z,14.77
2022-10-31T01:23:31.755Z,16.42
2022-10-31T01:26:03.427Z,16.02
2022-10-31T01:28:30.805Z,18.90
2022-10-31T01:31:01.622Z,17.52
2022-10-31T01:33:31.839Z,16.65
2022-10-31T01:35:59.506Z,15.05
2022-10-31T01:38:27.038Z,17.02
2022-10-31T01:40:54.815Z,16.33
2022-10-31T01:45:52.937Z,21.35
2022-10-31T01:48:21.937Z,20.30
2022-10-31T01:50:50.349Z,22.00
2022-10-31T01:53:25.881Z,19.17
2022-10-31T01:55:58.985Z,16.80
2022-10-31T01:58:29.650Z,18.10
2022-10-31T02:01:01.811Z,20.38
2022-10-31T02:03:32.958Z,17.15
2022-10-31T02:06:02.941Z,16.70
2022-10-31T02:08:31.483Z,16.58
2022-10-31T02:10:59.994Z,18.48
2022-10-31T02:13:28.036Z,19.70
2022-10-31T02:15:56.631Z,18.20
2022-10-31T02:18:25.026Z,16.73
2022-10-31T02:20:52.236Z,14.45
2022-10-31T02:23:33.842Z,16.30
2022-10-31T02:26:10.174Z,15.40
2022-10-31T02:28:49.661Z,16.77
2022-10-31T02:31:16.895Z,15.45
2022-10-31T02:33:55.532Z,15.27
2022-10-31T02:36:30.837Z,15.07
2022-10-31T02:39:13.742Z,15.05
2022-10-31T02:42:02.533Z,15.23
2022-10-31T02:44:39.125Z,15.55
2022-10-31T02:47:20.348Z,15.48
2022-10-31T02:49:50.624Z,16.10
2022-10-31T02:52:21.952Z,17.08
2022-10-31T02:54:49.736Z,14.10
2022-10-31T02:57:24.476Z,15.23
2022-10-31T02:59:54.574Z,17.38
2022-10-31T03:02:30.986Z,17.05
2022-10-31T03:05:23.965Z,15.85
2022-10-31T03:08:09.214Z,16.45
2022-10-31T03:10:59.488Z,15.35
2022-10-31T03:13:59.497Z,14.88
2022-10-31T03:16:37.678Z,15.35
2022-10-31T03:19:16.026Z,14.43
2022-10-31T03:21:53.286Z,16.75
2022-10-31T03:24:20.964Z,15.13
2022-10-31T03:26:51.510Z,16.63
2022-10-31T03:29:21.193Z,16.52
2022-10-31T03:31:53.581Z,15.00
2022-10-31T03:34:21.465Z,14.75
2022-10-31T03:36:50.668Z,14.32
2022-10-31T03:39:20.051Z,15.27
2022-10-31T03:41:49.950Z,15.00
2022-10-31T03:44:19.487Z,17.10
2022-10-31T03:46:46.884Z,18.27
2022-10-31T03:49:15.888Z,17.67
2022-10-31T03:52:01.933Z,15.82
2022-10-31T03:54:36.466Z,15.88
2022-10-31T03:57:10.628Z,17.50
2022-10-31T03:59:52.980Z,16.95
2022-10-31T04:02:38.109Z,17.48
2022-10-31T04:05:09.616Z,19.70
2022-10-31T04:07:44.167Z,18.73
2022-10-31T04:10:13.280Z,18.17
2022-10-31T04:12:43.846Z,18.40
2022-10-31T04:15:11.868Z,16.17
2022-10-31T04:17:40.925Z,16.60
2022-10-31T04:20:08.624Z,15.88
2022-10-31T04:22:39.529Z,15.55
2022-10-31T04:25:21.991Z,15.60
2022-10-31T04:27:55.743Z,15.30
2022-10-31T04:30:31.427Z,15.35
2022-10-31T04:33:15.876Z,16.42
2022-10-31T04:36:00.608Z,15.57
2022-10-31T04:41:44.385Z,16.27
2022-10-31T04:46:55.135Z,15.27
2022-10-31T04:49:50.226Z,14.63
2022-10-31T04:55:19.067Z,15.13
2022-10-31T04:57:52.642Z,17.40
2022-10-31T05:03:38.081Z,14.95
2022-10-31T05:06:25.741Z,17.17
2022-10-31T05:09:14.082Z,14.98
2022-10-31T05:11:47.606Z,16.33
2022-10-31T05:14:17.561Z,17.58
2022-10-31T05:19:53.477Z,16.45
2022-10-31T05:22:40.714Z,18.52
2022-10-31T05:25:42.150Z,16.02
2022-10-31T05:34:52.658Z,17.00
2022-10-31T05:37:25.229Z,18.30
2022-10-31T05:43:03.497Z,20.50
2022-10-31T05:45:51.785Z,16.40
2022-10-31T12:14:59.907Z,11.93
2022-10-31T12:17:43.935Z,13.25
2022-10-31T12:20:20.387Z,11.48
2022-10-31T12:23:29.597Z,11.82
2022-10-31T12:29:05.281Z,10.63
2022-10-31T12:31:42.558Z,12.02
2022-10-31T12:34:29.625Z,12.43
2022-10-31T12:37:07.298Z,12.43
2022-10-31T12:39:52.453Z,12.43
2022-10-31T12:42:48.739Z,13.63
2022-10-31T12:45:16.049Z,11.63
2022-10-31T12:48:10.064Z,13.38
2022-10-31T12:50:53.869Z,13.45
2022-10-31T12:53:36.187Z,15.02
2022-10-31T12:56:19.858Z,11.90
2022-10-31T12:59:06.572Z,13.77
2022-10-31T13:01:43.176Z,13.75
2022-10-31T13:04:19.286Z,12.85
2022-10-31T13:06:51.546Z,13.55
2022-10-31T13:09:38.466Z,11.38
2022-10-31T13:12:22.656Z,13.02
2022-10-31T13:17:54.946Z,14.32
2022-10-31T13:20:43.269Z,13.57
2022-10-31T13:26:24.274Z,16.10
2022-10-31T13:29:07.906Z,12.68
2022-10-31T13:31:36.409Z,12.75
2022-10-31T13:34:12.796Z,15.75
2022-10-31T13:36:48.402Z,13.57
2022-10-31T13:39:35.818Z,14.25
2022-10-31T13:42:12.323Z,14.55
2022-10-31T13:45:04.598Z,13.30
2022-10-31T13:47:35.114Z,15.32
2022-10-31T13:50:19.067Z,12.70
2022-10-31T13:52:52.019Z,14.80
2022-10-31T13:58:35.150Z,15.27
2022-10-31T14:01:11.200Z,13.30
2022-10-31T14:04:04.580Z,12.40
2022-10-31T14:06:40.131Z,13.57
2022-10-31T14:09:14.864Z,12.50
2022-10-31T14:15:32.845Z,10.88
2022-10-31T14:18:08.777Z,12.35
2022-10-31T14:20:46.468Z,12.80
2022-10-31T14:23:43.282Z,14.02
2022-10-31T14:26:28.537Z,13.40
2022-10-31T14:28:59.773Z,12.70
2022-10-31T14:31:41.263Z,13.98
2022-10-31T14:34:26.337Z,12.93
2022-10-31T14:37:11.684Z,14.25
2022-10-31T14:39:49.627Z,12.43
2022-10-31T14:42:39.953Z,14.15
2022-10-31T14:45:17.321Z,13.38
2022-10-31T14:47:44.601Z,13.40
2022-10-31T14:50:17.618Z,12.23
2022-10-31T14:52:47.495Z,12.40
2022-10-31T14:55:17.527Z,11.68
2022-10-31T14:57:49.079Z,12.82
2022-10-31T15:00:20.564Z,12.48
2022-10-31T15:02:50.028Z,13.00
2022-10-31T15:05:19.835Z,12.13
2022-10-31T15:07:53.322Z,14.35
2022-10-31T15:10:22.255Z,15.07
2022-10-31T15:12:49.488Z,13.23
2022-10-31T15:15:20.936Z,13.15
2022-10-31T15:17:51.377Z,12.75
2022-10-31T15:20:20.198Z,15.25
2022-10-31T15:22:47.814Z,15.43
2022-10-31T15:25:19.640Z,13.65
2022-10-31T15:27:47.620Z,13.88
2022-10-31T15:30:22.216Z,14.00
2022-10-31T15:32:57.454Z,15.70
2022-10-31T15:35:27.310Z,16.27
2022-10-31T15:37:54.936Z,15.65
2022-10-31T15:40:23.401Z,15.98
2022-10-31T15:42:55.406Z,18.48
2022-10-31T15:45:27.797Z,20.15
2022-10-31T15:48:00.052Z,19.38
2022-10-31T15:52:54.636Z,19.00
2022-10-31T15:55:27.202Z,19.77
2022-10-31T15:57:56.899Z,21.85
2022-10-31T16:00:30.761Z,23.27
2022-10-31T16:03:20.925Z,27.00
2022-10-31T16:05:48.004Z,25.38
2022-10-31T16:08:32.680Z,24.30
2022-10-31T16:11:20.077Z,21.08
2022-10-31T16:13:54.736Z,25.00
2022-10-31T16:16:34.721Z,26.83
2022-10-31T16:19:03.897Z,27.45
2022-10-31T16:21:37.062Z,32.22
2022-10-31T16:24:16.924Z,30.55
2022-10-31T16:26:48.638Z,24.75
2022-10-31T16:29:34.341Z,27.83
2022-10-31T16:32:01.713Z,25.58
2022-10-31T16:34:28.798Z,26.13
2022-10-31T16:36:56.031Z,39.08
2022-10-31T16:39:23.395Z,38.05
2022-10-31T16:41:52.493Z,24.95
2022-10-31T16:44:19.636Z,26.67
2022-10-31T16:46:46.802Z,25.05
2022-10-31T16:49:14.278Z,23.80
2022-10-31T16:51:41.378Z,28.45
2022-10-31T16:54:11.746Z,23.65
2022-10-31T16:56:39.763Z,25.23
2022-10-31T16:59:13.354Z,24.67
2022-10-31T17:01:44.546Z,23.70
2022-10-31T17:04:14.630Z,23.65
2022-10-31T17:06:42.131Z,24.58
2022-10-31T17:09:09.935Z,24.15
2022-10-31T17:11:37.089Z,31.08
2022-10-31T17:14:05.131Z,31.63
2022-10-31T17:16:32.263Z,31.27
2022-10-31T17:18:59.618Z,26.17
2022-10-31T17:21:28.017Z,27.55
2022-10-31T17:23:55.261Z,27.10
2022-10-31T17:26:23.262Z,30.98
2022-10-31T17:28:52.012Z,29.30
2022-10-31T17:31:28.861Z,26.45
2022-10-31T17:34:02.233Z,35.00
2022-10-31T17:36:30.728Z,30.55
2022-10-31T17:38:58.127Z,26.55
2022-10-31T17:41:25.308Z,28.02
2022-10-31T17:43:56.151Z,29.98
2022-10-31T17:46:23.279Z,49.28
2022-10-31T17:48:50.412Z,34.80
2022-10-31T17:51:17.598Z,30.40
2022-10-31T17:53:44.728Z,27.42
2022-10-31T17:56:11.978Z,28.83
2022-10-31T17:58:39.472Z,27.42
2022-10-31T18:01:10.987Z,48.20
2022-10-31T18:03:39.013Z,36.00
2022-10-31T18:06:06.435Z,26.13
2022-10-31T18:08:34.644Z,24.73
2022-10-31T18:11:06.185Z,24.85
2022-10-31T18:13:33.335Z,48.03
2022-10-31T18:16:00.454Z,41.47
2022-10-31T18:18:27.602Z,29.98
2022-10-31T18:20:57.641Z,24.30
2022-10-31T18:23:24.769Z,26.65
2022-10-31T18:25:51.916Z,26.15
2022-10-31T18:28:19.044Z,25.38
2022-10-31T18:30:46.164Z,30.58
2022-10-31T18:33:13.373Z,31.42
2022-10-31T18:35:40.701Z,25.67
2022-10-31T18:38:08.184Z,32.55
2022-10-31T18:40:36.126Z,38.70
2022-10-31T18:43:03.947Z,27.05
2022-10-31T18:45:41.711Z,32.92
2022-10-31T18:50:41.600Z,34.58
2022-10-31T18:53:08.844Z,30.80
2022-10-31T18:55:41.514Z,28.33
2022-10-31T18:58:11.232Z,36.22
2022-10-31T19:00:38.633Z,33.58
2022-10-31T19:03:06.659Z,41.22
2022-10-31T19:05:33.832Z,47.38
2022-10-31T19:08:00.973Z,41.22
2022-10-31T19:10:28.221Z,36.40
2022-10-31T19:12:55.467Z,35.30
2022-10-31T19:15:22.770Z,36.25
2022-10-31T19:17:49.949Z,35.60
2022-10-31T19:20:17.176Z,38.33
2022-10-31T19:22:44.464Z,35.78
2022-10-31T19:25:11.724Z,37.83
2022-10-31T19:27:39.163Z,35.10
2022-10-31T19:30:07.381Z,38.83
2022-10-31T19:32:34.720Z,43.00
2022-10-31T19:35:02.717Z,39.72
2022-10-31T19:37:29.891Z,39.78
2022-10-31T19:39:57.000Z,44.33
2022-10-31T19:42:24.353Z,41.53
2022-10-31T19:44:51.704Z,36.88
2022-10-31T19:47:18.865Z,34.78
2022-10-31T19:49:46.005Z,31.98
2022-10-31T19:52:13.057Z,33.50
2022-10-31T19:54:40.127Z,33.92
2022-10-31T19:57:07.304Z,28.25
2022-10-31T19:59:39.105Z,29.30
2022-10-31T20:02:06.676Z,27.50
2022-10-31T20:04:33.778Z,26.73
2022-10-31T20:07:00.912Z,30.65
2022-10-31T20:09:27.979Z,27.45
2022-10-31T20:11:55.135Z,28.08
2022-10-31T20:14:22.212Z,27.58
2022-10-31T20:16:49.459Z,33.47
2022-10-31T20:19:16.587Z,31.73
2022-10-31T20:21:43.999Z,33.67
2022-10-31T20:24:11.628Z,31.33
2022-10-31T20:26:40.726Z,34.17
2022-10-31T20:29:08.494Z,30.75
2022-10-31T20:31:36.768Z,26.88
2022-10-31T20:34:04.361Z,37.03
2022-10-31T20:36:31.944Z,42.15
2022-10-31T20:39:00.318Z,41.97
2022-10-31T20:41:27.533Z,40.00
2022-10-31T20:43:54.688Z,45.55
2022-10-31T20:46:23.448Z,40.35
2022-10-31T20:48:50.976Z,40.53
2022-10-31T20:51:19.147Z,38.10
2022-10-31T20:53:46.299Z,40.15
2022-10-31T20:56:14.656Z,41.70
2022-10-31T20:58:42.604Z,45.92
2022-10-31T21:01:13.968Z,38.33
2022-10-31T21:03:41.251Z,39.75
2022-10-31T21:06:08.539Z,47.00
2022-10-31T21:08:36.275Z,36.85
2022-10-31T21:11:06.865Z,46.78
2022-10-31T21:13:40.203Z,42.58
2022-10-31T21:16:09.294Z,38.10
2022-10-31T21:18:37.056Z,39.33
2022-10-31T21:21:10.277Z,35.28
2022-10-31T21:23:37.630Z,32.67
2022-10-31T21:26:05.754Z,36.47
2022-10-31T21:28:32.923Z,40.05
2022-10-31T21:31:00.184Z,37.05
2022-10-31T21:33:27.344Z,37.50
2022-10-31T21:35:57.110Z,36.75
2022-10-31T21:38:25.571Z,32.75
2022-10-31T21:40:58.924Z,32.60
2022-10-31T21:43:28.935Z,32.92
2022-10-31T21:45:56.110Z,37.47
2022-10-31T21:48:23.243Z,35.22
2022-10-31T21:50:50.590Z,29.42
2022-10-31T21:53:36.880Z,37.25
2022-10-31T21:56:04.361Z,28.60
2022-10-31T21:58:34.768Z,29.73
2022-10-31T22:01:04.895Z,32.78
2022-10-31T22:03:35.747Z,29.27
2022-10-31T22:06:03.629Z,31.92
2022-10-31T22:08:31.008Z,26.90
2022-10-31T22:10:58.395Z,34.63
2022-10-31T22:13:25.460Z,30.45
2022-10-31T22:15:52.591Z,36.10
2022-10-31T22:18:19.653Z,35.63
2022-10-31T22:20:46.746Z,27.42
2022-10-31T22:23:13.839Z,30.10
2022-10-31T22:25:40.910Z,28.42
2022-10-31T22:28:08.099Z,28.33
2022-10-31T22:30:38.615Z,29.65
2022-10-31T22:33:05.810Z,30.50
2022-10-31T22:35:34.969Z,32.53
2022-10-31T22:38:02.192Z,35.67
2022-10-31T22:40:29.258Z,40.95
2022-10-31T22:42:56.304Z,35.33
2022-10-31T22:45:23.421Z,37.47
2022-10-31T22:47:50.532Z,42.00
2022-10-31T22:50:17.623Z,32.97
2022-10-31T22:52:44.810Z,32.63
2022-10-31T22:55:11.928Z,33.65
2022-10-31T22:57:39.046Z,33.85
2022-10-31T23:00:06.429Z,38.10
2022-10-31T23:02:33.697Z,37.80
2022-10-31T23:05:00.836Z,38.78
2022-10-31T23:07:32.090Z,37.83
2022-10-31T23:10:00.211Z,33.78
2022-10-31T23:12:48.582Z,39.63
2022-10-31T23:15:15.712Z,35.90
2022-10-31T23:17:42.803Z,33.42
2022-10-31T23:20:10.046Z,34.53
2022-10-31T23:22:37.117Z,34.35
2022-10-31T23:25:04.421Z,35.72
2022-10-31T23:27:31.507Z,31.67
2022-10-31T23:29:59.711Z,39.85
2022-10-31T23:32:28.468Z,33.13
2022-10-31T23:34:59.842Z,38.28
2022-10-31T23:37:31.214Z,36.40
2022-10-31T23:39:58.567Z,41.47
2022-10-31T23:42:25.934Z,40.55
2022-10-31T23:44:53.154Z,36.67
2022-10-31T23:47:20.289Z,37.20
2022-10-31T23:49:47.688Z,38.75
2022-10-31T23:52:15.143Z,35.10
2022-10-31T23:54:42.598Z,36.50
2022-10-31T23:57:11.147Z,36.88
2022-10-31T23:59:38.237Z,30.48
